KCKN/CKN METAR and TAF weather

Enter ICAO airport designator
Station Type Date Time Source
KCKN METAR 2022/08/12 15:15 UTC NOAA

KCKN 121515Z AUTO 13010KT 10SM SCT070 21/16 A3000 RMK AO2


Station Type Date Time Source
KCKN Decoded METAR 2022/08/12 15:15 UTC NOAA

Crookston Municipal Field, MN, United States (KCKN) 47-51N 096-37W
Aug 12, 2022 - 11:15 AM EDT / 2022.08.12 1515 UTC
Wind: from the SE (130 degrees) at 12 MPH (10 KT):0
Visibility: 10 mile(s):0
Sky conditions: partly cloudy
Temperature: 69 F (21 C)
Dew Point: 60 F (16 C)
Relative Humidity: 73%
Pressure (altimeter): 30 in. Hg (1015 hPa)
ob: KCKN 121515Z AUTO 13010KT 10SM SCT070 21/16 A3000 RMK AO2
cycle: 15

Station Type Date Time Source
KCKN TAF UTC NOAA

Error!

Example: see airport list